sensor_id;sensor_type;location;lat;lon;timestamp;P1;durP1;ratioP1;P2;durP2;ratioP2
33188;SDS011;52601;53.070;10.600;2022-12-07T00:01:10;7.05;;;4.60;;
33188;SDS011;52601;53.070;10.600;2022-12-07T00:04:01;8.25;;;4.95;;
33188;SDS011;52601;53.070;10.600;2022-12-07T00:06:51;7.85;;;4.88;;
33188;SDS011;52601;53.070;10.600;2022-12-07T00:09:37;11.23;;;4.65;;
33188;SDS011;52601;53.070;10.600;2022-12-07T00:12:23;8.90;;;5.07;;
33188;SDS011;52601;53.070;10.600;2022-12-07T00:15:09;7.35;;;4.65;;
33188;SDS011;52601;53.070;10.600;2022-12-07T00:17:55;9.07;;;4.80;;
33188;SDS011;52601;53.070;10.600;2022-12-07T00:20:40;7.37;;;4.63;;
33188;SDS011;52601;53.070;10.600;2022-12-07T00:23:26;8.30;;;4.57;;
33188;SDS011;52601;53.070;10.600;2022-12-07T00:26:12;6.57;;;4.47;;
33188;SDS011;52601;53.070;10.600;2022-12-07T00:29:02;8.35;;;4.38;;
33188;SDS011;52601;53.070;10.600;2022-12-07T00:31:50;10.07;;;4.70;;
33188;SDS011;52601;53.070;10.600;2022-12-07T00:34:36;7.22;;;4.53;;
33188;SDS011;52601;53.070;10.600;2022-12-07T00:37:21;7.18;;;4.63;;
33188;SDS011;52601;53.070;10.600;2022-12-07T00:40:07;8.60;;;4.60;;
33188;SDS011;52601;53.070;10.600;2022-12-07T00:42:53;6.80;;;4.20;;
33188;SDS011;52601;53.070;10.600;2022-12-07T00:45:38;7.57;;;4.53;;
33188;SDS011;52601;53.070;10.600;2022-12-07T00:48:25;8.23;;;4.45;;
33188;SDS011;52601;53.070;10.600;2022-12-07T00:51:11;8.98;;;5.05;;
33188;SDS011;52601;53.070;10.600;2022-12-07T00:53:58;7.63;;;4.57;;
33188;SDS011;52601;53.070;10.600;2022-12-07T00:56:44;8.43;;;5.03;;
33188;SDS011;52601;53.070;10.600;2022-12-07T00:59:29;6.60;;;4.40;;
33188;SDS011;52601;53.070;10.600;2022-12-07T01:02:15;7.03;;;4.63;;
33188;SDS011;52601;53.070;10.600;2022-12-07T01:05:00;8.45;;;4.80;;
33188;SDS011;52601;53.070;10.600;2022-12-07T01:07:45;8.48;;;4.85;;
33188;SDS011;52601;53.070;10.600;2022-12-07T01:10:31;7.10;;;4.30;;
33188;SDS011;52601;53.070;10.600;2022-12-07T01:13:17;8.63;;;4.18;;
33188;SDS011;52601;53.070;10.600;2022-12-07T01:16:03;9.63;;;5.47;;
33188;SDS011;52601;53.070;10.600;2022-12-07T01:18:51;8.52;;;5.05;;
33188;SDS011;52601;53.070;10.600;2022-12-07T01:21:38;8.85;;;4.88;;
33188;SDS011;52601;53.070;10.600;2022-12-07T01:24:24;8.43;;;4.80;;
33188;SDS011;52601;53.070;10.600;2022-12-07T01:27:09;8.45;;;5.05;;
33188;SDS011;52601;53.070;10.600;2022-12-07T01:29:55;8.00;;;4.57;;
33188;SDS011;52601;53.070;10.600;2022-12-07T01:32:40;10.07;;;4.33;;
33188;SDS011;52601;53.070;10.600;2022-12-07T01:35:26;7.40;;;4.88;;
33188;SDS011;52601;53.070;10.600;2022-12-07T01:38:11;8.50;;;4.40;;
33188;SDS011;52601;53.070;10.600;2022-12-07T01:40:57;7.17;;;4.20;;
33188;SDS011;52601;53.070;10.600;2022-12-07T01:47:06;8.15;;;5.15;;
33188;SDS011;52601;53.070;10.600;2022-12-07T01:49:52;7.18;;;4.85;;
33188;SDS011;52601;53.070;10.600;2022-12-07T01:52:37;6.97;;;3.83;;
33188;SDS011;52601;53.070;10.600;2022-12-07T01:55:25;7.20;;;4.03;;
33188;SDS011;52601;53.070;10.600;2022-12-07T01:58:11;7.97;;;4.37;;
33188;SDS011;52601;53.070;10.600;2022-12-07T02:00:58;6.28;;;3.78;;
33188;SDS011;52601;53.070;10.600;2022-12-07T02:03:44;7.93;;;4.65;;
33188;SDS011;52601;53.070;10.600;2022-12-07T02:06:30;5.63;;;3.50;;
33188;SDS011;52601;53.070;10.600;2022-12-07T02:09:16;6.85;;;4.65;;
33188;SDS011;52601;53.070;10.600;2022-12-07T02:12:01;10.93;;;4.40;;
33188;SDS011;52601;53.070;10.600;2022-12-07T02:14:47;8.13;;;4.68;;
33188;SDS011;52601;53.070;10.600;2022-12-07T02:27:14;6.50;;;3.75;;
33188;SDS011;52601;53.070;10.600;2022-12-07T02:30:21;6.50;;;3.05;;
33188;SDS011;52601;53.070;10.600;2022-12-07T02:33:11;5.70;;;3.58;;
33188;SDS011;52601;53.070;10.600;2022-12-07T02:36:04;7.28;;;3.40;;
33188;SDS011;52601;53.070;10.600;2022-12-07T02:38:57;5.90;;;3.97;;
33188;SDS011;52601;53.070;10.600;2022-12-07T02:41:47;8.40;;;3.55;;
33188;SDS011;52601;53.070;10.600;2022-12-07T02:44:38;8.15;;;4.00;;
33188;SDS011;52601;53.070;10.600;2022-12-07T02:47:24;5.63;;;3.45;;
33188;SDS011;52601;53.070;10.600;2022-12-07T02:50:11;5.55;;;3.30;;
33188;SDS011;52601;53.070;10.600;2022-12-07T02:52:57;7.63;;;3.13;;
33188;SDS011;52601;53.070;10.600;2022-12-07T02:55:42;4.57;;;2.70;;
33188;SDS011;52601;53.070;10.600;2022-12-07T02:58:32;4.70;;;2.65;;
33188;SDS011;52601;53.070;10.600;2022-12-07T03:04:24;4.15;;;2.75;;
33188;SDS011;52601;53.070;10.600;2022-12-07T03:10:38;4.55;;;2.75;;
33188;SDS011;52601;53.070;10.600;2022-12-07T03:14:17;4.93;;;2.67;;
33188;SDS011;52601;53.070;10.600;2022-12-07T03:16:55;4.75;;;2.55;;
33188;SDS011;52601;53.070;10.600;2022-12-07T03:19:47;4.47;;;2.40;;
33188;SDS011;52601;53.070;10.600;2022-12-07T03:22:36;5.40;;;2.63;;
33188;SDS011;52601;53.070;10.600;2022-12-07T03:25:25;3.80;;;2.22;;
33188;SDS011;52601;53.070;10.600;2022-12-07T03:28:12;3.75;;;2.30;;
33188;SDS011;52601;53.070;10.600;2022-12-07T03:31:12;5.27;;;2.60;;
33188;SDS011;52601;53.070;10.600;2022-12-07T03:34:05;4.83;;;2.33;;
33188;SDS011;52601;53.070;10.600;2022-12-07T03:36:57;3.80;;;2.13;;
33188;SDS011;52601;53.070;10.600;2022-12-07T03:39:56;4.25;;;1.67;;
33188;SDS011;52601;53.070;10.600;2022-12-07T03:42:52;4.38;;;1.83;;
33188;SDS011;52601;53.070;10.600;2022-12-07T03:45:40;3.88;;;1.83;;
33188;SDS011;52601;53.070;10.600;2022-12-07T03:48:32;4.80;;;1.88;;
33188;SDS011;52601;53.070;10.600;2022-12-07T03:54:58;2.00;;;1.37;;
33188;SDS011;52601;53.070;10.600;2022-12-07T03:58:07;4.00;;;1.60;;
33188;SDS011;52601;53.070;10.600;2022-12-07T04:00:57;4.30;;;1.75;;
33188;SDS011;52601;53.070;10.600;2022-12-07T04:03:43;4.38;;;1.67;;
33188;SDS011;52601;53.070;10.600;2022-12-07T04:06:28;3.17;;;1.52;;
33188;SDS011;52601;53.070;10.600;2022-12-07T04:09:14;3.67;;;1.50;;
33188;SDS011;52601;53.070;10.600;2022-12-07T04:12:00;3.07;;;1.70;;
33188;SDS011;52601;53.070;10.600;2022-12-07T04:14:46;2.75;;;1.67;;
33188;SDS011;52601;53.070;10.600;2022-12-07T04:17:31;2.33;;;1.55;;
33188;SDS011;52601;53.070;10.600;2022-12-07T04:20:17;3.60;;;1.90;;
33188;SDS011;52601;53.070;10.600;2022-12-07T04:23:02;3.40;;;1.40;;
33188;SDS011;52601;53.070;10.600;2022-12-07T04:25:48;5.85;;;1.70;;
33188;SDS011;52601;53.070;10.600;2022-12-07T04:28:34;5.50;;;1.67;;
33188;SDS011;52601;53.070;10.600;2022-12-07T04:31:19;5.28;;;2.03;;
33188;SDS011;52601;53.070;10.600;2022-12-07T04:34:05;3.50;;;1.50;;
33188;SDS011;52601;53.070;10.600;2022-12-07T04:36:51;3.40;;;1.80;;
33188;SDS011;52601;53.070;10.600;2022-12-07T04:39:36;3.70;;;1.80;;
33188;SDS011;52601;53.070;10.600;2022-12-07T04:42:22;2.45;;;1.35;;
33188;SDS011;52601;53.070;10.600;2022-12-07T04:45:07;3.25;;;1.58;;
33188;SDS011;52601;53.070;10.600;2022-12-07T04:47:53;2.25;;;1.83;;
33188;SDS011;52601;53.070;10.600;2022-12-07T04:50:39;3.85;;;1.65;;
33188;SDS011;52601;53.070;10.600;2022-12-07T04:53:30;2.88;;;1.25;;
33188;SDS011;52601;53.070;10.600;2022-12-07T04:56:16;3.88;;;1.40;;
33188;SDS011;52601;53.070;10.600;2022-12-07T04:59:02;4.57;;;1.70;;
33188;SDS011;52601;53.070;10.600;2022-12-07T05:01:48;3.63;;;1.65;;
33188;SDS011;52601;53.070;10.600;2022-12-07T05:04:34;4.22;;;1.98;;
33188;SDS011;52601;53.070;10.600;2022-12-07T05:07:19;1.65;;;1.25;;
33188;SDS011;52601;53.070;10.600;2022-12-07T05:10:05;1.67;;;1.25;;
33188;SDS011;52601;53.070;10.600;2022-12-07T05:12:51;3.30;;;1.40;;
33188;SDS011;52601;53.070;10.600;2022-12-07T05:15:37;1.90;;;1.02;;
33188;SDS011;52601;53.070;10.600;2022-12-07T05:18:22;1.60;;;1.08;;
33188;SDS011;52601;53.070;10.600;2022-12-07T05:21:08;2.78;;;1.02;;
33188;SDS011;52601;53.070;10.600;2022-12-07T05:23:53;2.58;;;1.63;;
33188;SDS011;52601;53.070;10.600;2022-12-07T05:26:39;1.77;;;1.10;;
33188;SDS011;52601;53.070;10.600;2022-12-07T05:29:25;2.05;;;1.10;;
33188;SDS011;52601;53.070;10.600;2022-12-07T05:32:10;2.43;;;1.17;;
33188;SDS011;52601;53.070;10.600;2022-12-07T05:34:56;2.50;;;1.30;;
33188;SDS011;52601;53.070;10.600;2022-12-07T05:37:42;1.20;;;0.88;;
33188;SDS011;52601;53.070;10.600;2022-12-07T05:40:27;2.67;;;1.03;;
33188;SDS011;52601;53.070;10.600;2022-12-07T05:43:13;2.13;;;1.40;;
33188;SDS011;52601;53.070;10.600;2022-12-07T05:45:58;2.05;;;1.17;;
33188;SDS011;52601;53.070;10.600;2022-12-07T05:48:44;3.45;;;1.60;;
33188;SDS011;52601;53.070;10.600;2022-12-07T05:51:30;3.75;;;1.50;;
33188;SDS011;52601;53.070;10.600;2022-12-07T05:54:15;2.00;;;1.30;;
33188;SDS011;52601;53.070;10.600;2022-12-07T05:57:01;4.13;;;1.30;;
33188;SDS011;52601;53.070;10.600;2022-12-07T05:59:46;3.93;;;0.93;;
33188;SDS011;52601;53.070;10.600;2022-12-07T06:02:32;2.40;;;1.00;;
33188;SDS011;52601;53.070;10.600;2022-12-07T06:05:17;1.85;;;1.00;;
33188;SDS011;52601;53.070;10.600;2022-12-07T06:08:02;1.65;;;1.02;;
33188;SDS011;52601;53.070;10.600;2022-12-07T06:10:50;2.57;;;1.27;;
33188;SDS011;52601;53.070;10.600;2022-12-07T06:13:56;1.52;;;0.93;;
33188;SDS011;52601;53.070;10.600;2022-12-07T06:16:41;2.17;;;1.13;;
33188;SDS011;52601;53.070;10.600;2022-12-07T06:19:27;2.92;;;1.00;;
33188;SDS011;52601;53.070;10.600;2022-12-07T06:22:12;1.77;;;0.90;;
33188;SDS011;52601;53.070;10.600;2022-12-07T06:24:58;1.80;;;1.02;;
33188;SDS011;52601;53.070;10.600;2022-12-07T06:27:43;1.73;;;0.90;;
33188;SDS011;52601;53.070;10.600;2022-12-07T06:30:29;1.17;;;0.80;;
33188;SDS011;52601;53.070;10.600;2022-12-07T06:33:15;1.15;;;0.95;;
33188;SDS011;52601;53.070;10.600;2022-12-07T06:46:44;5.10;;;1.30;;
33188;SDS011;52601;53.070;10.600;2022-12-07T06:49:30;1.85;;;0.98;;
33188;SDS011;52601;53.070;10.600;2022-12-07T06:52:15;1.90;;;1.00;;
33188;SDS011;52601;53.070;10.600;2022-12-07T06:55:01;2.00;;;1.00;;
33188;SDS011;52601;53.070;10.600;2022-12-07T06:57:46;2.10;;;1.10;;
33188;SDS011;52601;53.070;10.600;2022-12-07T07:00:32;0.75;;;0.57;;
33188;SDS011;52601;53.070;10.600;2022-12-07T07:03:20;3.47;;;1.33;;
33188;SDS011;52601;53.070;10.600;2022-12-07T07:06:06;4.60;;;1.10;;
33188;SDS011;52601;53.070;10.600;2022-12-07T07:08:52;2.73;;;1.00;;
33188;SDS011;52601;53.070;10.600;2022-12-07T07:11:38;1.73;;;1.20;;
33188;SDS011;52601;53.070;10.600;2022-12-07T07:14:24;4.72;;;1.80;;
33188;SDS011;52601;53.070;10.600;2022-12-07T07:17:09;1.98;;;1.00;;
33188;SDS011;52601;53.070;10.600;2022-12-07T07:19:55;1.77;;;1.08;;
33188;SDS011;52601;53.070;10.600;2022-12-07T07:22:40;1.83;;;1.25;;
33188;SDS011;52601;53.070;10.600;2022-12-07T07:25:26;3.92;;;1.40;;
33188;SDS011;52601;53.070;10.600;2022-12-07T07:28:11;2.50;;;1.00;;
33188;SDS011;52601;53.070;10.600;2022-12-07T07:30:57;2.30;;;1.47;;
33188;SDS011;52601;53.070;10.600;2022-12-07T07:33:42;2.80;;;1.20;;
33188;SDS011;52601;53.070;10.600;2022-12-07T07:36:28;2.13;;;0.93;;
33188;SDS011;52601;53.070;10.600;2022-12-07T07:39:13;5.90;;;1.60;;
33188;SDS011;52601;53.070;10.600;2022-12-07T07:41:58;3.77;;;1.83;;
33188;SDS011;52601;53.070;10.600;2022-12-07T07:44:44;2.30;;;1.30;;
33188;SDS011;52601;53.070;10.600;2022-12-07T07:47:29;1.85;;;0.98;;
33188;SDS011;52601;53.070;10.600;2022-12-07T07:50:14;1.80;;;1.30;;
33188;SDS011;52601;53.070;10.600;2022-12-07T07:53:01;3.75;;;1.05;;
33188;SDS011;52601;53.070;10.600;2022-12-07T07:55:53;2.08;;;1.00;;
33188;SDS011;52601;53.070;10.600;2022-12-07T07:58:39;3.00;;;1.20;;
33188;SDS011;52601;53.070;10.600;2022-12-07T08:01:25;1.48;;;0.95;;
33188;SDS011;52601;53.070;10.600;2022-12-07T08:04:10;2.50;;;1.23;;
33188;SDS011;52601;53.070;10.600;2022-12-07T08:06:56;2.85;;;1.38;;
33188;SDS011;52601;53.070;10.600;2022-12-07T08:09:42;2.70;;;1.03;;
33188;SDS011;52601;53.070;10.600;2022-12-07T08:12:27;1.48;;;1.05;;
33188;SDS011;52601;53.070;10.600;2022-12-07T08:15:13;1.88;;;1.02;;
33188;SDS011;52601;53.070;10.600;2022-12-07T08:17:58;3.58;;;1.10;;
33188;SDS011;52601;53.070;10.600;2022-12-07T08:20:44;2.35;;;0.95;;
33188;SDS011;52601;53.070;10.600;2022-12-07T08:23:30;4.50;;;1.13;;
33188;SDS011;52601;53.070;10.600;2022-12-07T08:26:24;2.00;;;0.90;;
33188;SDS011;52601;53.070;10.600;2022-12-07T08:29:09;1.58;;;0.80;;
33188;SDS011;52601;53.070;10.600;2022-12-07T08:31:55;1.23;;;0.80;;
33188;SDS011;52601;53.070;10.600;2022-12-07T08:34:41;2.10;;;0.93;;
33188;SDS011;52601;53.070;10.600;2022-12-07T08:37:26;1.80;;;0.68;;
33188;SDS011;52601;53.070;10.600;2022-12-07T08:40:12;2.50;;;0.80;;
33188;SDS011;52601;53.070;10.600;2022-12-07T08:43:00;4.97;;;0.90;;
33188;SDS011;52601;53.070;10.600;2022-12-07T08:45:46;3.05;;;0.90;;
33188;SDS011;52601;53.070;10.600;2022-12-07T08:48:34;1.60;;;0.60;;
33188;SDS011;52601;53.070;10.600;2022-12-07T08:51:24;1.67;;;0.80;;
33188;SDS011;52601;53.070;10.600;2022-12-07T08:54:10;5.00;;;0.80;;
33188;SDS011;52601;53.070;10.600;2022-12-07T08:56:57;1.42;;;0.90;;
33188;SDS011;52601;53.070;10.600;2022-12-07T08:59:44;2.10;;;0.93;;
33188;SDS011;52601;53.070;10.600;2022-12-07T09:02:30;4.22;;;0.98;;
33188;SDS011;52601;53.070;10.600;2022-12-07T09:05:16;2.25;;;0.70;;
33188;SDS011;52601;53.070;10.600;2022-12-07T09:08:02;3.00;;;0.90;;
33188;SDS011;52601;53.070;10.600;2022-12-07T09:10:48;1.33;;;0.70;;
33188;SDS011;52601;53.070;10.600;2022-12-07T09:13:33;1.83;;;0.90;;
33188;SDS011;52601;53.070;10.600;2022-12-07T09:16:19;1.25;;;0.75;;
33188;SDS011;52601;53.070;10.600;2022-12-07T09:19:04;4.03;;;1.10;;
33188;SDS011;52601;53.070;10.600;2022-12-07T09:21:50;2.03;;;0.70;;
33188;SDS011;52601;53.070;10.600;2022-12-07T09:24:35;2.30;;;1.10;;
33188;SDS011;52601;53.070;10.600;2022-12-07T09:27:21;4.03;;;1.42;;
33188;SDS011;52601;53.070;10.600;2022-12-07T09:30:06;2.97;;;1.10;;
33188;SDS011;52601;53.070;10.600;2022-12-07T09:32:55;2.97;;;0.90;;
33188;SDS011;52601;53.070;10.600;2022-12-07T09:35:45;2.40;;;0.70;;
33188;SDS011;52601;53.070;10.600;2022-12-07T09:38:32;1.27;;;0.68;;
33188;SDS011;52601;53.070;10.600;2022-12-07T09:41:17;1.00;;;0.80;;
33188;SDS011;52601;53.070;10.600;2022-12-07T09:44:05;2.22;;;0.60;;
33188;SDS011;52601;53.070;10.600;2022-12-07T09:46:55;1.10;;;0.55;;
33188;SDS011;52601;53.070;10.600;2022-12-07T09:49:41;1.25;;;0.60;;
33188;SDS011;52601;53.070;10.600;2022-12-07T09:52:27;1.92;;;0.80;;
33188;SDS011;52601;53.070;10.600;2022-12-07T09:55:26;2.60;;;0.63;;
33188;SDS011;52601;53.070;10.600;2022-12-07T09:58:23;2.50;;;0.80;;
33188;SDS011;52601;53.070;10.600;2022-12-07T10:01:15;1.67;;;1.17;;
33188;SDS011;52601;53.070;10.600;2022-12-07T10:04:18;1.10;;;0.60;;
33188;SDS011;52601;53.070;10.600;2022-12-07T10:07:07;2.03;;;0.97;;
33188;SDS011;52601;53.070;10.600;2022-12-07T10:09:52;4.90;;;1.17;;
33188;SDS011;52601;53.070;10.600;2022-12-07T10:15:46;3.30;;;0.68;;
33188;SDS011;52601;53.070;10.600;2022-12-07T10:18:38;1.02;;;0.60;;
33188;SDS011;52601;53.070;10.600;2022-12-07T10:21:29;0.93;;;0.80;;
33188;SDS011;52601;53.070;10.600;2022-12-07T10:24:14;6.28;;;1.17;;
33188;SDS011;52601;53.070;10.600;2022-12-07T10:27:00;1.17;;;0.70;;
33188;SDS011;52601;53.070;10.600;2022-12-07T10:29:47;2.13;;;0.63;;
33188;SDS011;52601;53.070;10.600;2022-12-07T10:32:35;1.40;;;0.70;;
33188;SDS011;52601;53.070;10.600;2022-12-07T10:35:23;1.25;;;0.70;;
33188;SDS011;52601;53.070;10.600;2022-12-07T10:38:16;1.95;;;1.10;;
33188;SDS011;52601;53.070;10.600;2022-12-07T10:41:05;1.15;;;0.70;;
33188;SDS011;52601;53.070;10.600;2022-12-07T10:43:53;1.15;;;0.70;;
33188;SDS011;52601;53.070;10.600;2022-12-07T10:46:43;3.00;;;0.63;;
33188;SDS011;52601;53.070;10.600;2022-12-07T10:49:43;1.48;;;0.55;;
33188;SDS011;52601;53.070;10.600;2022-12-07T10:53:01;3.65;;;0.80;;
33188;SDS011;52601;53.070;10.600;2022-12-07T10:56:29;1.08;;;0.50;;
33188;SDS011;52601;53.070;10.600;2022-12-07T11:05:56;3.47;;;0.90;;
33188;SDS011;52601;53.070;10.600;2022-12-07T11:15:40;2.00;;;0.40;;
33188;SDS011;52601;53.070;10.600;2022-12-07T11:34:19;3.60;;;1.00;;
33188;SDS011;52601;53.070;10.600;2022-12-07T11:37:32;1.40;;;0.40;;
33188;SDS011;52601;53.070;10.600;2022-12-07T11:40:28;2.80;;;0.85;;
33188;SDS011;52601;53.070;10.600;2022-12-07T11:43:24;1.38;;;0.38;;
33188;SDS011;52601;53.070;10.600;2022-12-07T11:46:13;1.60;;;0.90;;
33188;SDS011;52601;53.070;10.600;2022-12-07T11:49:03;0.65;;;0.40;;
33188;SDS011;52601;53.070;10.600;2022-12-07T11:51:57;1.67;;;0.60;;
33188;SDS011;52601;53.070;10.600;2022-12-07T11:54:47;2.50;;;0.88;;
33188;SDS011;52601;53.070;10.600;2022-12-07T11:57:39;0.40;;;0.40;;
33188;SDS011;52601;53.070;10.600;2022-12-07T12:00:29;2.63;;;0.60;;
33188;SDS011;52601;53.070;10.600;2022-12-07T12:03:21;1.45;;;0.45;;
33188;SDS011;52601;53.070;10.600;2022-12-07T12:06:15;1.00;;;0.65;;
33188;SDS011;52601;53.070;10.600;2022-12-07T12:09:05;1.05;;;0.75;;
33188;SDS011;52601;53.070;10.600;2022-12-07T12:12:31;1.40;;;0.60;;
33188;SDS011;52601;53.070;10.600;2022-12-07T12:16:12;2.40;;;0.60;;
33188;SDS011;52601;53.070;10.600;2022-12-07T12:22:18;2.05;;;0.90;;
33188;SDS011;52601;53.070;10.600;2022-12-07T12:25:12;3.15;;;0.65;;
33188;SDS011;52601;53.070;10.600;2022-12-07T12:28:15;2.95;;;0.93;;
33188;SDS011;52601;53.070;10.600;2022-12-07T12:31:11;10.23;;;1.02;;
33188;SDS011;52601;53.070;10.600;2022-12-07T12:34:00;4.00;;;0.80;;
33188;SDS011;52601;53.070;10.600;2022-12-07T12:36:48;1.85;;;0.63;;
33188;SDS011;52601;53.070;10.600;2022-12-07T12:39:33;1.70;;;0.50;;
33188;SDS011;52601;53.070;10.600;2022-12-07T12:42:19;1.50;;;0.40;;
33188;SDS011;52601;53.070;10.600;2022-12-07T12:45:17;1.15;;;0.63;;
33188;SDS011;52601;53.070;10.600;2022-12-07T12:48:28;1.67;;;0.60;;
33188;SDS011;52601;53.070;10.600;2022-12-07T12:54:20;2.30;;;0.80;;
33188;SDS011;52601;53.070;10.600;2022-12-07T13:00:21;1.00;;;0.40;;
33188;SDS011;52601;53.070;10.600;2022-12-07T13:03:16;2.27;;;0.70;;
33188;SDS011;52601;53.070;10.600;2022-12-07T13:09:19;1.00;;;0.50;;
33188;SDS011;52601;53.070;10.600;2022-12-07T13:12:14;1.70;;;0.57;;
33188;SDS011;52601;53.070;10.600;2022-12-07T13:15:01;1.53;;;0.53;;
33188;SDS011;52601;53.070;10.600;2022-12-07T13:17:56;1.85;;;0.68;;
33188;SDS011;52601;53.070;10.600;2022-12-07T13:21:02;2.10;;;0.50;;
33188;SDS011;52601;53.070;10.600;2022-12-07T13:24:07;1.63;;;0.80;;
33188;SDS011;52601;53.070;10.600;2022-12-07T13:26:57;2.08;;;0.80;;
33188;SDS011;52601;53.070;10.600;2022-12-07T13:29:43;1.45;;;0.60;;
33188;SDS011;52601;53.070;10.600;2022-12-07T13:32:28;1.57;;;0.80;;
33188;SDS011;52601;53.070;10.600;2022-12-07T13:35:31;3.00;;;0.95;;
33188;SDS011;52601;53.070;10.600;2022-12-07T13:41:16;4.18;;;1.40;;
33188;SDS011;52601;53.070;10.600;2022-12-07T13:44:10;1.15;;;0.40;;
33188;SDS011;52601;53.070;10.600;2022-12-07T13:47:06;2.22;;;0.73;;
33188;SDS011;52601;53.070;10.600;2022-12-07T13:49:53;1.07;;;0.57;;
33188;SDS011;52601;53.070;10.600;2022-12-07T13:52:43;1.23;;;0.65;;
33188;SDS011;52601;53.070;10.600;2022-12-07T13:55:30;1.98;;;0.77;;
33188;SDS011;52601;53.070;10.600;2022-12-07T13:58:15;1.60;;;0.88;;
33188;SDS011;52601;53.070;10.600;2022-12-07T14:01:01;7.25;;;0.98;;
33188;SDS011;52601;53.070;10.600;2022-12-07T14:03:47;1.92;;;0.57;;
33188;SDS011;52601;53.070;10.600;2022-12-07T14:06:32;2.47;;;0.70;;
33188;SDS011;52601;53.070;10.600;2022-12-07T14:09:19;1.63;;;0.70;;
33188;SDS011;52601;53.070;10.600;2022-12-07T14:12:07;0.63;;;0.40;;
33188;SDS011;52601;53.070;10.600;2022-12-07T14:14:53;1.52;;;0.60;;
33188;SDS011;52601;53.070;10.600;2022-12-07T14:17:49;2.00;;;0.50;;
33188;SDS011;52601;53.070;10.600;2022-12-07T14:20:37;1.55;;;0.60;;
33188;SDS011;52601;53.070;10.600;2022-12-07T14:23:25;1.00;;;0.50;;
33188;SDS011;52601;53.070;10.600;2022-12-07T14:26:13;1.85;;;0.40;;
33188;SDS011;52601;53.070;10.600;2022-12-07T14:29:34;2.85;;;1.05;;
33188;SDS011;52601;53.070;10.600;2022-12-07T14:35:09;3.08;;;1.00;;
33188;SDS011;52601;53.070;10.600;2022-12-07T14:37:56;2.05;;;0.70;;
33188;SDS011;52601;53.070;10.600;2022-12-07T14:40:42;5.65;;;1.15;;
33188;SDS011;52601;53.070;10.600;2022-12-07T14:43:28;1.25;;;0.65;;
33188;SDS011;52601;53.070;10.600;2022-12-07T14:46:13;2.23;;;0.80;;
33188;SDS011;52601;53.070;10.600;2022-12-07T14:48:59;4.93;;;1.08;;
33188;SDS011;52601;53.070;10.600;2022-12-07T14:52:04;3.70;;;0.50;;
33188;SDS011;52601;53.070;10.600;2022-12-07T14:58:12;4.18;;;1.35;;
33188;SDS011;52601;53.070;10.600;2022-12-07T15:00:59;1.17;;;0.50;;
33188;SDS011;52601;53.070;10.600;2022-12-07T15:03:46;3.17;;;0.50;;
33188;SDS011;52601;53.070;10.600;2022-12-07T15:06:31;2.30;;;0.52;;
33188;SDS011;52601;53.070;10.600;2022-12-07T15:09:17;1.70;;;0.90;;
33188;SDS011;52601;53.070;10.600;2022-12-07T15:12:03;2.20;;;0.80;;
33188;SDS011;52601;53.070;10.600;2022-12-07T15:14:48;2.60;;;0.70;;
33188;SDS011;52601;53.070;10.600;2022-12-07T15:17:34;4.00;;;0.60;;
33188;SDS011;52601;53.070;10.600;2022-12-07T15:20:20;2.25;;;0.50;;
33188;SDS011;52601;53.070;10.600;2022-12-07T15:23:05;4.38;;;0.57;;
33188;SDS011;52601;53.070;10.600;2022-12-07T15:25:51;1.75;;;0.50;;
33188;SDS011;52601;53.070;10.600;2022-12-07T15:28:37;1.42;;;0.80;;
33188;SDS011;52601;53.070;10.600;2022-12-07T15:31:22;1.10;;;0.80;;
33188;SDS011;52601;53.070;10.600;2022-12-07T15:34:28;1.65;;;0.70;;
33188;SDS011;52601;53.070;10.600;2022-12-07T15:37:23;1.40;;;0.70;;
33188;SDS011;52601;53.070;10.600;2022-12-07T15:40:09;2.72;;;0.93;;
33188;SDS011;52601;53.070;10.600;2022-12-07T15:42:55;2.38;;;0.68;;
33188;SDS011;52601;53.070;10.600;2022-12-07T15:45:41;5.07;;;1.10;;
33188;SDS011;52601;53.070;10.600;2022-12-07T15:48:26;2.17;;;0.70;;
33188;SDS011;52601;53.070;10.600;2022-12-07T15:51:13;3.30;;;0.70;;
33188;SDS011;52601;53.070;10.600;2022-12-07T15:54:04;0.97;;;0.70;;
33188;SDS011;52601;53.070;10.600;2022-12-07T15:56:50;2.13;;;0.80;;
33188;SDS011;52601;53.070;10.600;2022-12-07T15:59:36;1.63;;;0.73;;
33188;SDS011;52601;53.070;10.600;2022-12-07T16:02:21;1.45;;;0.88;;
33188;SDS011;52601;53.070;10.600;2022-12-07T16:05:09;2.58;;;0.90;;
33188;SDS011;52601;53.070;10.600;2022-12-07T16:07:54;1.43;;;0.73;;
33188;SDS011;52601;53.070;10.600;2022-12-07T16:10:40;2.45;;;1.17;;
33188;SDS011;52601;53.070;10.600;2022-12-07T16:13:28;2.45;;;1.10;;
33188;SDS011;52601;53.070;10.600;2022-12-07T16:16:15;1.70;;;0.80;;
33188;SDS011;52601;53.070;10.600;2022-12-07T16:19:01;3.60;;;1.50;;
33188;SDS011;52601;53.070;10.600;2022-12-07T16:21:47;2.80;;;1.00;;
33188;SDS011;52601;53.070;10.600;2022-12-07T16:24:33;2.17;;;1.02;;
33188;SDS011;52601;53.070;10.600;2022-12-07T16:27:18;5.22;;;1.58;;
33188;SDS011;52601;53.070;10.600;2022-12-07T16:30:04;6.03;;;1.15;;
33188;SDS011;52601;53.070;10.600;2022-12-07T16:32:51;4.00;;;1.40;;
33188;SDS011;52601;53.070;10.600;2022-12-07T16:35:39;7.75;;;1.40;;
33188;SDS011;52601;53.070;10.600;2022-12-07T16:38:28;3.20;;;1.50;;
33188;SDS011;52601;53.070;10.600;2022-12-07T16:41:14;1.63;;;1.13;;
33188;SDS011;52601;53.070;10.600;2022-12-07T16:44:01;3.63;;;1.13;;
33188;SDS011;52601;53.070;10.600;2022-12-07T16:46:48;4.25;;;2.05;;
33188;SDS011;52601;53.070;10.600;2022-12-07T16:49:34;2.45;;;1.45;;
33188;SDS011;52601;53.070;10.600;2022-12-07T16:52:20;2.87;;;1.07;;
33188;SDS011;52601;53.070;10.600;2022-12-07T16:55:06;4.57;;;1.10;;
33188;SDS011;52601;53.070;10.600;2022-12-07T16:57:52;3.55;;;1.10;;
33188;SDS011;52601;53.070;10.600;2022-12-07T17:00:38;1.42;;;1.30;;
33188;SDS011;52601;53.070;10.600;2022-12-07T17:03:24;2.35;;;0.90;;
33188;SDS011;52601;53.070;10.600;2022-12-07T17:06:16;2.00;;;0.85;;
33188;SDS011;52601;53.070;10.600;2022-12-07T17:09:06;1.75;;;1.00;;
33188;SDS011;52601;53.070;10.600;2022-12-07T17:11:54;2.00;;;1.10;;
33188;SDS011;52601;53.070;10.600;2022-12-07T17:14:40;1.23;;;0.88;;
33188;SDS011;52601;53.070;10.600;2022-12-07T17:17:44;1.80;;;1.02;;
33188;SDS011;52601;53.070;10.600;2022-12-07T17:20:31;3.35;;;0.73;;
33188;SDS011;52601;53.070;10.600;2022-12-07T17:23:17;2.67;;;0.90;;
33188;SDS011;52601;53.070;10.600;2022-12-07T17:26:04;2.13;;;1.13;;
33188;SDS011;52601;53.070;10.600;2022-12-07T17:28:51;3.33;;;1.35;;
33188;SDS011;52601;53.070;10.600;2022-12-07T17:31:37;6.03;;;1.30;;
33188;SDS011;52601;53.070;10.600;2022-12-07T17:34:23;4.47;;;1.00;;
33188;SDS011;52601;53.070;10.600;2022-12-07T17:37:08;1.25;;;1.10;;
33188;SDS011;52601;53.070;10.600;2022-12-07T17:39:53;1.40;;;0.80;;
33188;SDS011;52601;53.070;10.600;2022-12-07T17:42:42;2.55;;;1.10;;
33188;SDS011;52601;53.070;10.600;2022-12-07T17:45:32;2.35;;;1.23;;
33188;SDS011;52601;53.070;10.600;2022-12-07T17:48:18;3.78;;;1.40;;
33188;SDS011;52601;53.070;10.600;2022-12-07T17:51:04;4.10;;;1.30;;
33188;SDS011;52601;53.070;10.600;2022-12-07T17:54:08;2.65;;;1.02;;
33188;SDS011;52601;53.070;10.600;2022-12-07T17:56:54;2.75;;;1.30;;
33188;SDS011;52601;53.070;10.600;2022-12-07T17:59:40;2.58;;;1.23;;
33188;SDS011;52601;53.070;10.600;2022-12-07T18:02:26;1.70;;;0.83;;
33188;SDS011;52601;53.070;10.600;2022-12-07T18:05:11;1.98;;;1.25;;
33188;SDS011;52601;53.070;10.600;2022-12-07T18:07:57;4.22;;;1.42;;